sensor_id;sensor_type;location;lat;lon;timestamp;P1;durP1;ratioP1;P2;durP2;ratioP2
66593;SDS011;53450;42.584;23.366;2022-09-13T00:00:37;4.00;;;3.60;;
66593;SDS011;53450;42.584;23.366;2022-09-13T00:03:04;4.43;;;4.00;;
66593;SDS011;53450;42.584;23.366;2022-09-13T00:05:29;4.68;;;4.18;;
66593;SDS011;53450;42.584;23.366;2022-09-13T00:07:55;6.72;;;4.88;;
66593;SDS011;53450;42.584;23.366;2022-09-13T00:10:21;6.28;;;4.53;;
66593;SDS011;53450;42.584;23.366;2022-09-13T00:12:48;6.65;;;4.78;;
66593;SDS011;53450;42.584;23.366;2022-09-13T00:15:14;9.32;;;6.47;;
66593;SDS011;53450;42.584;23.366;2022-09-13T00:17:39;8.98;;;6.60;;
66593;SDS011;53450;42.584;23.366;2022-09-13T00:20:05;9.43;;;5.72;;
66593;SDS011;53450;42.584;23.366;2022-09-13T00:22:32;7.72;;;6.10;;
66593;SDS011;53450;42.584;23.366;2022-09-13T00:24:58;9.00;;;7.30;;
66593;SDS011;53450;42.584;23.366;2022-09-13T00:27:24;12.50;;;8.35;;
66593;SDS011;53450;42.584;23.366;2022-09-13T00:29:49;12.40;;;7.50;;
66593;SDS011;53450;42.584;23.366;2022-09-13T00:32:15;9.35;;;7.35;;
66593;SDS011;53450;42.584;23.366;2022-09-13T00:34:41;10.48;;;7.13;;
66593;SDS011;53450;42.584;23.366;2022-09-13T00:37:07;12.88;;;8.05;;
66593;SDS011;53450;42.584;23.366;2022-09-13T00:39:33;10.10;;;6.80;;
66593;SDS011;53450;42.584;23.366;2022-09-13T00:41:58;10.60;;;7.10;;
66593;SDS011;53450;42.584;23.366;2022-09-13T00:47:16;12.13;;;7.45;;
66593;SDS011;53450;42.584;23.366;2022-09-13T00:49:45;9.05;;;7.50;;
66593;SDS011;53450;42.584;23.366;2022-09-13T00:52:15;9.55;;;6.57;;
66593;SDS011;53450;42.584;23.366;2022-09-13T00:54:55;9.40;;;6.55;;
66593;SDS011;53450;42.584;23.366;2022-09-13T00:57:26;9.70;;;6.68;;
66593;SDS011;53450;42.584;23.366;2022-09-13T00:59:56;12.98;;;6.85;;
66593;SDS011;53450;42.584;23.366;2022-09-13T01:02:29;7.60;;;6.80;;
66593;SDS011;53450;42.584;23.366;2022-09-13T01:04:55;9.45;;;6.75;;
66593;SDS011;53450;42.584;23.366;2022-09-13T01:07:21;10.27;;;6.72;;
66593;SDS011;53450;42.584;23.366;2022-09-13T01:09:47;11.63;;;7.00;;
66593;SDS011;53450;42.584;23.366;2022-09-13T01:14:46;9.68;;;7.30;;
66593;SDS011;53450;42.584;23.366;2022-09-13T01:17:13;9.98;;;6.35;;
66593;SDS011;53450;42.584;23.366;2022-09-13T01:19:39;9.30;;;6.38;;
66593;SDS011;53450;42.584;23.366;2022-09-13T01:27:46;10.18;;;5.97;;
66593;SDS011;53450;42.584;23.366;2022-09-13T01:42:15;9.32;;;5.95;;
66593;SDS011;53450;42.584;23.366;2022-09-13T01:48:14;10.60;;;6.68;;
66593;SDS011;53450;42.584;23.366;2022-09-13T01:50:45;9.15;;;6.05;;
66593;SDS011;53450;42.584;23.366;2022-09-13T01:53:19;9.77;;;6.20;;
66593;SDS011;53450;42.584;23.366;2022-09-13T01:59:01;16.63;;;7.07;;
66593;SDS011;53450;42.584;23.366;2022-09-13T02:02:20;9.68;;;7.10;;
66593;SDS011;53450;42.584;23.366;2022-09-13T02:04:54;8.23;;;6.60;;
66593;SDS011;53450;42.584;23.366;2022-09-13T02:07:26;16.77;;;6.75;;
66593;SDS011;53450;42.584;23.366;2022-09-13T02:09:59;7.40;;;5.38;;
66593;SDS011;53450;42.584;23.366;2022-09-13T02:12:35;10.38;;;6.75;;
66593;SDS011;53450;42.584;23.366;2022-09-13T02:17:45;10.88;;;6.53;;
66593;SDS011;53450;42.584;23.366;2022-09-13T02:20:17;5.75;;;4.28;;
66593;SDS011;53450;42.584;23.366;2022-09-13T02:22:46;7.93;;;6.15;;
66593;SDS011;53450;42.584;23.366;2022-09-13T02:25:16;5.97;;;5.00;;
66593;SDS011;53450;42.584;23.366;2022-09-13T02:27:45;7.15;;;6.00;;
66593;SDS011;53450;42.584;23.366;2022-09-13T02:30:14;11.88;;;6.63;;
66593;SDS011;53450;42.584;23.366;2022-09-13T02:32:52;8.10;;;6.07;;
66593;SDS011;53450;42.584;23.366;2022-09-13T02:41:02;6.95;;;5.70;;
66593;SDS011;53450;42.584;23.366;2022-09-13T02:43:44;7.32;;;5.30;;
66593;SDS011;53450;42.584;23.366;2022-09-13T02:46:18;9.52;;;6.13;;
66593;SDS011;53450;42.584;23.366;2022-09-13T02:59:55;43.80;;;4.95;;
66593;SDS011;53450;42.584;23.366;2022-09-13T03:02:21;12.85;;;6.55;;
66593;SDS011;53450;42.584;23.366;2022-09-13T03:04:51;8.30;;;6.10;;
66593;SDS011;53450;42.584;23.366;2022-09-13T03:07:17;10.90;;;5.90;;
66593;SDS011;53450;42.584;23.366;2022-09-13T03:10:09;6.18;;;5.57;;
66593;SDS011;53450;42.584;23.366;2022-09-13T03:18:14;10.82;;;5.65;;
66593;SDS011;53450;42.584;23.366;2022-09-13T03:23:37;6.18;;;5.00;;
66593;SDS011;53450;42.584;23.366;2022-09-13T03:34:42;7.10;;;5.07;;
66593;SDS011;53450;42.584;23.366;2022-09-13T03:40:15;4.85;;;4.40;;
66593;SDS011;53450;42.584;23.366;2022-09-13T03:43:03;8.98;;;4.90;;
66593;SDS011;53450;42.584;23.366;2022-09-13T03:45:38;5.60;;;4.28;;
66593;SDS011;53450;42.584;23.366;2022-09-13T03:48:08;4.93;;;4.00;;
66593;SDS011;53450;42.584;23.366;2022-09-13T03:50:36;10.10;;;5.43;;
66593;SDS011;53450;42.584;23.366;2022-09-13T03:53:06;5.10;;;4.53;;
66593;SDS011;53450;42.584;23.366;2022-09-13T03:55:37;5.22;;;4.65;;
66593;SDS011;53450;42.584;23.366;2022-09-13T03:58:04;5.38;;;4.63;;
66593;SDS011;53450;42.584;23.366;2022-09-13T04:00:30;7.10;;;4.20;;
66593;SDS011;53450;42.584;23.366;2022-09-13T04:02:55;10.10;;;4.72;;
66593;SDS011;53450;42.584;23.366;2022-09-13T04:05:21;4.50;;;4.10;;
66593;SDS011;53450;42.584;23.366;2022-09-13T04:07:46;6.45;;;4.93;;
66593;SDS011;53450;42.584;23.366;2022-09-13T04:10:12;8.30;;;4.25;;
66593;SDS011;53450;42.584;23.366;2022-09-13T04:12:38;11.10;;;4.28;;
66593;SDS011;53450;42.584;23.366;2022-09-13T04:15:05;11.73;;;5.60;;
66593;SDS011;53450;42.584;23.366;2022-09-13T04:17:31;7.35;;;5.43;;
66593;SDS011;53450;42.584;23.366;2022-09-13T04:19:57;8.95;;;4.57;;
66593;SDS011;53450;42.584;23.366;2022-09-13T04:22:22;4.78;;;4.32;;
66593;SDS011;53450;42.584;23.366;2022-09-13T04:24:48;5.07;;;4.30;;
66593;SDS011;53450;42.584;23.366;2022-09-13T04:27:13;6.15;;;4.60;;
66593;SDS011;53450;42.584;23.366;2022-09-13T04:29:39;6.07;;;5.03;;
66593;SDS011;53450;42.584;23.366;2022-09-13T04:32:04;6.90;;;5.40;;
66593;SDS011;53450;42.584;23.366;2022-09-13T04:34:30;8.63;;;6.10;;
66593;SDS011;53450;42.584;23.366;2022-09-13T04:36:56;19.05;;;7.15;;
66593;SDS011;53450;42.584;23.366;2022-09-13T04:39:21;11.52;;;5.60;;
66593;SDS011;53450;42.584;23.366;2022-09-13T04:41:48;5.78;;;4.70;;
66593;SDS011;53450;42.584;23.366;2022-09-13T04:44:16;5.53;;;4.55;;
66593;SDS011;53450;42.584;23.366;2022-09-13T04:46:42;9.70;;;5.03;;
66593;SDS011;53450;42.584;23.366;2022-09-13T04:49:12;11.27;;;5.32;;
66593;SDS011;53450;42.584;23.366;2022-09-13T04:51:38;6.32;;;4.65;;
66593;SDS011;53450;42.584;23.366;2022-09-13T04:54:04;7.07;;;4.75;;
66593;SDS011;53450;42.584;23.366;2022-09-13T04:56:30;4.55;;;3.97;;
66593;SDS011;53450;42.584;23.366;2022-09-13T04:58:55;7.70;;;4.68;;
66593;SDS011;53450;42.584;23.366;2022-09-13T05:01:21;7.70;;;3.58;;
66593;SDS011;53450;42.584;23.366;2022-09-13T05:03:49;5.18;;;3.75;;
66593;SDS011;53450;42.584;23.366;2022-09-13T05:06:15;4.03;;;3.40;;
66593;SDS011;53450;42.584;23.366;2022-09-13T05:08:42;7.43;;;3.58;;
66593;SDS011;53450;42.584;23.366;2022-09-13T05:11:08;3.50;;;3.20;;
66593;SDS011;53450;42.584;23.366;2022-09-13T05:13:34;7.57;;;3.45;;
66593;SDS011;53450;42.584;23.366;2022-09-13T05:16:03;4.40;;;3.13;;
66593;SDS011;53450;42.584;23.366;2022-09-13T05:18:32;3.20;;;2.90;;
66593;SDS011;53450;42.584;23.366;2022-09-13T05:20:59;4.05;;;3.63;;
66593;SDS011;53450;42.584;23.366;2022-09-13T05:23:27;4.82;;;3.58;;
66593;SDS011;53450;42.584;23.366;2022-09-13T05:25:53;4.47;;;2.83;;
66593;SDS011;53450;42.584;23.366;2022-09-13T05:28:20;5.40;;;3.13;;
66593;SDS011;53450;42.584;23.366;2022-09-13T05:30:59;3.45;;;3.15;;
66593;SDS011;53450;42.584;23.366;2022-09-13T05:33:33;4.60;;;3.30;;
66593;SDS011;53450;42.584;23.366;2022-09-13T05:36:02;3.70;;;2.88;;
66593;SDS011;53450;42.584;23.366;2022-09-13T05:38:28;4.38;;;3.00;;
66593;SDS011;53450;42.584;23.366;2022-09-13T05:40:54;7.72;;;3.20;;
66593;SDS011;53450;42.584;23.366;2022-09-13T05:43:22;4.05;;;2.88;;
66593;SDS011;53450;42.584;23.366;2022-09-13T05:46:13;4.35;;;2.80;;
66593;SDS011;53450;42.584;23.366;2022-09-13T05:48:42;10.95;;;2.80;;
66593;SDS011;53450;42.584;23.366;2022-09-13T05:53:36;3.10;;;2.50;;
66593;SDS011;53450;42.584;23.366;2022-09-13T05:56:06;4.55;;;2.42;;
66593;SDS011;53450;42.584;23.366;2022-09-13T05:58:46;5.80;;;2.72;;
66593;SDS011;53450;42.584;23.366;2022-09-13T06:01:13;4.05;;;2.67;;
66593;SDS011;53450;42.584;23.366;2022-09-13T06:03:40;4.05;;;3.20;;
66593;SDS011;53450;42.584;23.366;2022-09-13T06:06:05;7.18;;;3.33;;
66593;SDS011;53450;42.584;23.366;2022-09-13T06:08:32;3.78;;;3.13;;
66593;SDS011;53450;42.584;23.366;2022-09-13T06:11:24;10.70;;;3.40;;
66593;SDS011;53450;42.584;23.366;2022-09-13T06:13:50;3.90;;;2.90;;
66593;SDS011;53450;42.584;23.366;2022-09-13T06:16:17;4.57;;;2.40;;
66593;SDS011;53450;42.584;23.366;2022-09-13T06:19:07;5.40;;;3.08;;
66593;SDS011;53450;42.584;23.366;2022-09-13T06:21:35;3.83;;;2.70;;
66593;SDS011;53450;42.584;23.366;2022-09-13T06:24:00;4.30;;;2.95;;
66593;SDS011;53450;42.584;23.366;2022-09-13T06:26:27;3.05;;;2.72;;
66593;SDS011;53450;42.584;23.366;2022-09-13T06:29:18;3.70;;;3.08;;
66593;SDS011;53450;42.584;23.366;2022-09-13T06:31:44;3.42;;;3.13;;
66593;SDS011;53450;42.584;23.366;2022-09-13T06:34:10;6.07;;;3.15;;
66593;SDS011;53450;42.584;23.366;2022-09-13T06:36:39;4.00;;;2.45;;
66593;SDS011;53450;42.584;23.366;2022-09-13T06:39:05;7.35;;;3.05;;
66593;SDS011;53450;42.584;23.366;2022-09-13T06:41:31;3.17;;;2.78;;
66593;SDS011;53450;42.584;23.366;2022-09-13T06:43:57;3.53;;;2.53;;
66593;SDS011;53450;42.584;23.366;2022-09-13T06:46:49;5.40;;;2.92;;
66593;SDS011;53450;42.584;23.366;2022-09-13T06:49:40;3.25;;;2.40;;
66593;SDS011;53450;42.584;23.366;2022-09-13T06:52:06;7.25;;;2.40;;
66593;SDS011;53450;42.584;23.366;2022-09-13T06:54:32;7.18;;;2.78;;
66593;SDS011;53450;42.584;23.366;2022-09-13T06:56:57;3.05;;;2.67;;
66593;SDS011;53450;42.584;23.366;2022-09-13T06:59:23;3.15;;;2.55;;
66593;SDS011;53450;42.584;23.366;2022-09-13T07:02:13;3.40;;;2.70;;
66593;SDS011;53450;42.584;23.366;2022-09-13T07:05:04;3.97;;;3.00;;
66593;SDS011;53450;42.584;23.366;2022-09-13T07:07:30;3.20;;;2.90;;
66593;SDS011;53450;42.584;23.366;2022-09-13T07:09:56;3.83;;;3.30;;
66593;SDS011;53450;42.584;23.366;2022-09-13T07:12:21;5.47;;;2.53;;
66593;SDS011;53450;42.584;23.366;2022-09-13T07:14:47;3.65;;;3.15;;
66593;SDS011;53450;42.584;23.366;2022-09-13T07:17:13;3.72;;;3.00;;
66593;SDS011;53450;42.584;23.366;2022-09-13T07:19:39;3.40;;;2.97;;
66593;SDS011;53450;42.584;23.366;2022-09-13T07:22:04;5.35;;;3.45;;
66593;SDS011;53450;42.584;23.366;2022-09-13T07:24:30;8.77;;;5.22;;
66593;SDS011;53450;42.584;23.366;2022-09-13T07:26:55;7.40;;;4.35;;
66593;SDS011;53450;42.584;23.366;2022-09-13T07:29:22;4.35;;;3.50;;
66593;SDS011;53450;42.584;23.366;2022-09-13T07:31:52;4.88;;;3.75;;
66593;SDS011;53450;42.584;23.366;2022-09-13T07:34:19;8.00;;;3.00;;
66593;SDS011;53450;42.584;23.366;2022-09-13T07:36:46;3.80;;;3.00;;
66593;SDS011;53450;42.584;23.366;2022-09-13T07:39:13;3.38;;;2.70;;
66593;SDS011;53450;42.584;23.366;2022-09-13T07:41:39;4.05;;;2.78;;
66593;SDS011;53450;42.584;23.366;2022-09-13T07:44:30;3.53;;;2.75;;
66593;SDS011;53450;42.584;23.366;2022-09-13T07:47:21;6.40;;;3.15;;
66593;SDS011;53450;42.584;23.366;2022-09-13T07:49:47;11.23;;;3.30;;
66593;SDS011;53450;42.584;23.366;2022-09-13T07:52:12;9.20;;;3.83;;
66593;SDS011;53450;42.584;23.366;2022-09-13T07:54:38;3.65;;;2.88;;
66593;SDS011;53450;42.584;23.366;2022-09-13T07:57:03;6.47;;;4.07;;
66593;SDS011;53450;42.584;23.366;2022-09-13T07:59:29;5.38;;;3.00;;
66593;SDS011;53450;42.584;23.366;2022-09-13T08:01:54;5.57;;;2.67;;
66593;SDS011;53450;42.584;23.366;2022-09-13T08:04:23;2.78;;;2.38;;
66593;SDS011;53450;42.584;23.366;2022-09-13T08:06:49;2.10;;;1.98;;
66593;SDS011;53450;42.584;23.366;2022-09-13T08:09:15;4.28;;;2.38;;
66593;SDS011;53450;42.584;23.366;2022-09-13T08:11:45;3.63;;;2.05;;
66593;SDS011;53450;42.584;23.366;2022-09-13T08:14:13;2.80;;;2.28;;
66593;SDS011;53450;42.584;23.366;2022-09-13T08:16:40;6.60;;;2.40;;
66593;SDS011;53450;42.584;23.366;2022-09-13T08:19:31;2.85;;;2.30;;
66593;SDS011;53450;42.584;23.366;2022-09-13T08:21:57;2.45;;;2.25;;
66593;SDS011;53450;42.584;23.366;2022-09-13T08:24:23;5.93;;;2.30;;
66593;SDS011;53450;42.584;23.366;2022-09-13T08:26:49;2.75;;;2.03;;
66593;SDS011;53450;42.584;23.366;2022-09-13T08:29:16;7.00;;;2.45;;
66593;SDS011;53450;42.584;23.366;2022-09-13T08:31:42;3.60;;;2.70;;
66593;SDS011;53450;42.584;23.366;2022-09-13T08:34:11;3.03;;;2.70;;
66593;SDS011;53450;42.584;23.366;2022-09-13T08:36:39;2.50;;;2.10;;
66593;SDS011;53450;42.584;23.366;2022-09-13T08:39:07;2.97;;;2.28;;
66593;SDS011;53450;42.584;23.366;2022-09-13T08:47:42;2.33;;;2.00;;
66593;SDS011;53450;42.584;23.366;2022-09-13T08:50:30;2.28;;;2.10;;
66593;SDS011;53450;42.584;23.366;2022-09-13T08:55:53;4.03;;;2.65;;
66593;SDS011;53450;42.584;23.366;2022-09-13T09:04:01;3.28;;;2.20;;
66593;SDS011;53450;42.584;23.366;2022-09-13T09:06:29;2.40;;;1.98;;
66593;SDS011;53450;42.584;23.366;2022-09-13T09:09:03;1.70;;;1.60;;
66593;SDS011;53450;42.584;23.366;2022-09-13T09:11:42;2.25;;;1.88;;
66593;SDS011;53450;42.584;23.366;2022-09-13T09:19:32;4.68;;;2.03;;
66593;SDS011;53450;42.584;23.366;2022-09-13T09:22:01;4.03;;;3.33;;
66593;SDS011;53450;42.584;23.366;2022-09-13T09:24:30;2.08;;;1.88;;
66593;SDS011;53450;42.584;23.366;2022-09-13T09:27:00;7.20;;;2.10;;
66593;SDS011;53450;42.584;23.366;2022-09-13T09:29:30;3.08;;;2.65;;
66593;SDS011;53450;42.584;23.366;2022-09-13T09:32:16;2.35;;;1.98;;
66593;SDS011;53450;42.584;23.366;2022-09-13T09:37:20;1.95;;;1.83;;
66593;SDS011;53450;42.584;23.366;2022-09-13T09:39:54;3.83;;;2.10;;
66593;SDS011;53450;42.584;23.366;2022-09-13T09:42:27;2.08;;;1.98;;
66593;SDS011;53450;42.584;23.366;2022-09-13T09:44:55;2.22;;;1.90;;
66593;SDS011;53450;42.584;23.366;2022-09-13T09:47:25;3.25;;;1.92;;
66593;SDS011;53450;42.584;23.366;2022-09-13T09:50:29;5.80;;;2.00;;
66593;SDS011;53450;42.584;23.366;2022-09-13T09:53:31;4.10;;;1.92;;
66593;SDS011;53450;42.584;23.366;2022-09-13T09:56:33;2.40;;;2.20;;
66593;SDS011;53450;42.584;23.366;2022-09-13T09:58:56;2.83;;;2.33;;
66593;SDS011;53450;42.584;23.366;2022-09-13T10:01:22;1.90;;;1.80;;
66593;SDS011;53450;42.584;23.366;2022-09-13T10:04:39;4.57;;;2.67;;
66593;SDS011;53450;42.584;23.366;2022-09-13T10:09:51;4.78;;;3.13;;
66593;SDS011;53450;42.584;23.366;2022-09-13T10:12:26;6.18;;;2.00;;
66593;SDS011;53450;42.584;23.366;2022-09-13T10:15:02;3.60;;;2.47;;
66593;SDS011;53450;42.584;23.366;2022-09-13T10:17:30;3.88;;;1.70;;
66593;SDS011;53450;42.584;23.366;2022-09-13T10:19:56;5.70;;;1.95;;
66593;SDS011;53450;42.584;23.366;2022-09-13T10:22:28;3.10;;;2.00;;
66593;SDS011;53450;42.584;23.366;2022-09-13T10:25:17;2.58;;;2.08;;
66593;SDS011;53450;42.584;23.366;2022-09-13T10:27:48;3.60;;;2.37;;
66593;SDS011;53450;42.584;23.366;2022-09-13T10:32:55;2.00;;;1.80;;
66593;SDS011;53450;42.584;23.366;2022-09-13T10:35:22;5.70;;;2.00;;
66593;SDS011;53450;42.584;23.366;2022-09-13T10:37:48;2.10;;;2.00;;
66593;SDS011;53450;42.584;23.366;2022-09-13T10:42:55;1.83;;;1.73;;
66593;SDS011;53450;42.584;23.366;2022-09-13T10:45:26;2.05;;;1.85;;
66593;SDS011;53450;42.584;23.366;2022-09-13T10:47:56;2.08;;;1.95;;
66593;SDS011;53450;42.584;23.366;2022-09-13T10:50:27;8.23;;;2.08;;
66593;SDS011;53450;42.584;23.366;2022-09-13T10:52:58;1.90;;;1.80;;
66593;SDS011;53450;42.584;23.366;2022-09-13T10:55:29;2.78;;;1.60;;
66593;SDS011;53450;42.584;23.366;2022-09-13T11:00:28;1.60;;;1.50;;
66593;SDS011;53450;42.584;23.366;2022-09-13T11:03:11;2.00;;;1.90;;
66593;SDS011;53450;42.584;23.366;2022-09-13T11:20:12;15.38;;;2.20;;
66593;SDS011;53450;42.584;23.366;2022-09-13T11:33:08;2.45;;;2.25;;
66593;SDS011;53450;42.584;23.366;2022-09-13T11:40:49;1.70;;;1.60;;
66593;SDS011;53450;42.584;23.366;2022-09-13T11:43:40;2.38;;;1.80;;
66593;SDS011;53450;42.584;23.366;2022-09-13T11:49:46;5.75;;;2.17;;
66593;SDS011;53450;42.584;23.366;2022-09-13T11:55:45;3.90;;;1.67;;
66593;SDS011;53450;42.584;23.366;2022-09-13T11:58:16;3.63;;;1.90;;
66593;SDS011;53450;42.584;23.366;2022-09-13T12:00:48;3.13;;;2.25;;
66593;SDS011;53450;42.584;23.366;2022-09-13T12:03:27;1.52;;;1.42;;
66593;SDS011;53450;42.584;23.366;2022-09-13T12:06:04;2.60;;;1.95;;
66593;SDS011;53450;42.584;23.366;2022-09-13T12:08:31;6.55;;;1.60;;
66593;SDS011;53450;42.584;23.366;2022-09-13T12:13:57;3.85;;;1.90;;
66593;SDS011;53450;42.584;23.366;2022-09-13T12:16:57;3.17;;;2.58;;
66593;SDS011;53450;42.584;23.366;2022-09-13T12:19:53;3.28;;;2.10;;
66593;SDS011;53450;42.584;23.366;2022-09-13T12:22:22;2.42;;;2.22;;
66593;SDS011;53450;42.584;23.366;2022-09-13T12:24:54;5.13;;;1.70;;
66593;SDS011;53450;42.584;23.366;2022-09-13T12:27:40;2.70;;;2.00;;
66593;SDS011;53450;42.584;23.366;2022-09-13T12:30:14;2.25;;;1.80;;
66593;SDS011;53450;42.584;23.366;2022-09-13T12:32:45;1.70;;;1.60;;
66593;SDS011;53450;42.584;23.366;2022-09-13T12:35:28;4.47;;;1.80;;
66593;SDS011;53450;42.584;23.366;2022-09-13T12:46:17;3.95;;;2.33;;
66593;SDS011;53450;42.584;23.366;2022-09-13T12:56:54;1.60;;;1.50;;
66593;SDS011;53450;42.584;23.366;2022-09-13T13:05:33;3.28;;;1.70;;
66593;SDS011;53450;42.584;23.366;2022-09-13T13:08:24;3.05;;;1.67;;
66593;SDS011;53450;42.584;23.366;2022-09-13T13:11:01;4.18;;;1.83;;
66593;SDS011;53450;42.584;23.366;2022-09-13T13:13:39;1.90;;;1.80;;
66593;SDS011;53450;42.584;23.366;2022-09-13T13:18:55;1.65;;;1.52;;
66593;SDS011;53450;42.584;23.366;2022-09-13T13:21:29;4.93;;;1.90;;
66593;SDS011;53450;42.584;23.366;2022-09-13T13:29:15;6.13;;;1.98;;
66593;SDS011;53450;42.584;23.366;2022-09-13T13:31:43;5.07;;;3.65;;
66593;SDS011;53450;42.584;23.366;2022-09-13T13:39:04;2.15;;;1.95;;
66593;SDS011;53450;42.584;23.366;2022-09-13T13:52:38;2.15;;;1.80;;
66593;SDS011;53450;42.584;23.366;2022-09-13T14:00:32;2.10;;;1.35;;
66593;SDS011;53450;42.584;23.366;2022-09-13T14:03:13;4.25;;;2.20;;
66593;SDS011;53450;42.584;23.366;2022-09-13T14:06:01;3.45;;;1.92;;
66593;SDS011;53450;42.584;23.366;2022-09-13T14:17:22;8.43;;;2.70;;
66593;SDS011;53450;42.584;23.366;2022-09-13T14:19:54;2.28;;;2.08;;
66593;SDS011;53450;42.584;23.366;2022-09-13T14:22:25;2.65;;;2.13;;
66593;SDS011;53450;42.584;23.366;2022-09-13T14:25:11;3.72;;;2.47;;
66593;SDS011;53450;42.584;23.366;2022-09-13T14:27:40;2.60;;;2.40;;
66593;SDS011;53450;42.584;23.366;2022-09-13T14:30:50;3.38;;;3.08;;
66593;SDS011;53450;42.584;23.366;2022-09-13T14:32:59;2.35;;;2.17;;
66593;SDS011;53450;42.584;23.366;2022-09-13T14:35:32;5.68;;;2.97;;
66593;SDS011;53450;42.584;23.366;2022-09-13T14:40:35;6.65;;;2.70;;
66593;SDS011;53450;42.584;23.366;2022-09-13T14:43:12;12.95;;;3.85;;
66593;SDS011;53450;42.584;23.366;2022-09-13T14:45:49;7.10;;;2.33;;
66593;SDS011;53450;42.584;23.366;2022-09-13T14:48:20;4.07;;;2.95;;
66593;SDS011;53450;42.584;23.366;2022-09-13T14:53:31;3.33;;;2.40;;
66593;SDS011;53450;42.584;23.366;2022-09-13T14:56:03;7.63;;;3.08;;
66593;SDS011;53450;42.584;23.366;2022-09-13T14:58:42;6.63;;;2.63;;
66593;SDS011;53450;42.584;23.366;2022-09-13T15:03:44;3.88;;;3.47;;
66593;SDS011;53450;42.584;23.366;2022-09-13T15:06:19;3.47;;;3.00;;
66593;SDS011;53450;42.584;23.366;2022-09-13T15:08:49;2.97;;;2.72;;
66593;SDS011;53450;42.584;23.366;2022-09-13T15:11:27;6.70;;;2.30;;
66593;SDS011;53450;42.584;23.366;2022-09-13T15:14:35;8.02;;;3.03;;
66593;SDS011;53450;42.584;23.366;2022-09-13T15:16:46;13.75;;;5.32;;
66593;SDS011;53450;42.584;23.366;2022-09-13T15:22:11;3.25;;;3.00;;
66593;SDS011;53450;42.584;23.366;2022-09-13T15:24:44;2.63;;;2.42;;
66593;SDS011;53450;42.584;23.366;2022-09-13T15:29:58;3.30;;;2.60;;
66593;SDS011;53450;42.584;23.366;2022-09-13T15:32:38;3.92;;;2.55;;
66593;SDS011;53450;42.584;23.366;2022-09-13T15:35:21;7.07;;;2.97;;
66593;SDS011;53450;42.584;23.366;2022-09-13T15:38:14;4.15;;;2.70;;
66593;SDS011;53450;42.584;23.366;2022-09-13T15:40:44;9.02;;;4.05;;
66593;SDS011;53450;42.584;23.366;2022-09-13T15:43:12;4.03;;;3.30;;
66593;SDS011;53450;42.584;23.366;2022-09-13T15:45:38;5.38;;;3.45;;
66593;SDS011;53450;42.584;23.366;2022-09-13T15:48:30;4.55;;;3.50;;
66593;SDS011;53450;42.584;23.366;2022-09-13T15:53:29;4.80;;;3.70;;
66593;SDS011;53450;42.584;23.366;2022-09-13T15:55:54;6.70;;;5.20;;
66593;SDS011;53450;42.584;23.366;2022-09-13T15:58:20;7.18;;;4.95;;
66593;SDS011;53450;42.584;23.366;2022-09-13T16:00:45;7.57;;;4.65;;
66593;SDS011;53450;42.584;23.366;2022-09-13T16:03:11;5.22;;;3.00;;
66593;SDS011;53450;42.584;23.366;2022-09-13T16:05:36;3.50;;;3.20;;
66593;SDS011;53450;42.584;23.366;2022-09-13T16:08:02;4.28;;;2.70;;
66593;SDS011;53450;42.584;23.366;2022-09-13T16:10:53;2.72;;;2.53;;
66593;SDS011;53450;42.584;23.366;2022-09-13T16:13:21;10.40;;;3.38;;
66593;SDS011;53450;42.584;23.366;2022-09-13T16:15:48;4.68;;;3.67;;
66593;SDS011;53450;42.584;23.366;2022-09-13T16:18:14;23.13;;;4.47;;
66593;SDS011;53450;42.584;23.366;2022-09-13T16:20:43;6.53;;;3.70;;
66593;SDS011;53450;42.584;23.366;2022-09-13T16:23:09;4.18;;;3.60;;
66593;SDS011;53450;42.584;23.366;2022-09-13T16:25:35;8.00;;;5.25;;
66593;SDS011;53450;42.584;23.366;2022-09-13T16:28:02;12.02;;;7.22;;
66593;SDS011;53450;42.584;23.366;2022-09-13T16:30:28;19.83;;;10.95;;
66593;SDS011;53450;42.584;23.366;2022-09-13T16:32:55;18.00;;;9.13;;
66593;SDS011;53450;42.584;23.366;2022-09-13T16:35:21;8.23;;;4.78;;
66593;SDS011;53450;42.584;23.366;2022-09-13T16:37:48;5.57;;;4.13;;
66593;SDS011;53450;42.584;23.366;2022-09-13T16:40:16;4.75;;;3.97;;
66593;SDS011;53450;42.584;23.366;2022-09-13T16:42:43;6.72;;;3.90;;
66593;SDS011;53450;42.584;23.366;2022-09-13T16:45:09;6.07;;;4.60;;
66593;SDS011;53450;42.584;23.366;2022-09-13T16:47:36;5.18;;;4.68;;
66593;SDS011;53450;42.584;23.366;2022-09-13T16:50:02;9.10;;;5.07;;
66593;SDS011;53450;42.584;23.366;2022-09-13T16:52:29;8.45;;;4.78;;
66593;SDS011;53450;42.584;23.366;2022-09-13T16:54:54;4.13;;;3.63;;
66593;SDS011;53450;42.584;23.366;2022-09-13T16:57:20;10.63;;;4.20;;
66593;SDS011;53450;42.584;23.366;2022-09-13T16:59:46;3.92;;;3.20;;
66593;SDS011;53450;42.584;23.366;2022-09-13T17:02:12;9.45;;;3.97;;
66593;SDS011;53450;42.584;23.366;2022-09-13T17:04:38;14.50;;;4.40;;
66593;SDS011;53450;42.584;23.366;2022-09-13T17:07:04;4.05;;;3.75;;
66593;SDS011;53450;42.584;23.366;2022-09-13T17:09:34;5.15;;;3.90;;
66593;SDS011;53450;42.584;23.366;2022-09-13T17:12:00;5.70;;;4.25;;
66593;SDS011;53450;42.584;23.366;2022-09-13T17:14:25;8.07;;;3.88;;
66593;SDS011;53450;42.584;23.366;2022-09-13T17:16:52;7.53;;;3.55;;
66593;SDS011;53450;42.584;23.366;2022-09-13T17:19:23;6.85;;;3.72;;
66593;SDS011;53450;42.584;23.366;2022-09-13T17:21:50;5.97;;;3.80;;
66593;SDS011;53450;42.584;23.366;2022-09-13T17:24:17;7.97;;;4.05;;
66593;SDS011;53450;42.584;23.366;2022-09-13T17:26:43;7.47;;;4.43;;
66593;SDS011;53450;42.584;23.366;2022-09-13T17:29:10;4.18;;;3.78;;
66593;SDS011;53450;42.584;23.366;2022-09-13T17:31:37;4.22;;;3.83;;
66593;SDS011;53450;42.584;23.366;2022-09-13T17:34:02;7.88;;;4.22;;
66593;SDS011;53450;42.584;23.366;2022-09-13T17:36:32;10.13;;;4.30;;
66593;SDS011;53450;42.584;23.366;2022-09-13T17:38:58;4.82;;;4.32;;
66593;SDS011;53450;42.584;23.366;2022-09-13T17:41:24;3.83;;;3.47;;
66593;SDS011;53450;42.584;23.366;2022-09-13T17:43:50;9.25;;;4.00;;
66593;SDS011;53450;42.584;23.366;2022-09-13T17:46:18;6.32;;;3.63;;
66593;SDS011;53450;42.584;23.366;2022-09-13T17:48:48;4.43;;;3.87;;
66593;SDS011;53450;42.584;23.366;2022-09-13T17:51:17;5.47;;;3.80;;
66593;SDS011;53450;42.584;23.366;2022-09-13T17:53:54;4.40;;;4.00;;
66593;SDS011;53450;42.584;23.366;2022-09-13T17:56:23;5.47;;;3.30;;
66593;SDS011;53450;42.584;23.366;2022-09-13T17:58:54;9.50;;;3.47;;
66593;SDS011;53450;42.584;23.366;2022-09-13T18:01:29;3.90;;;3.50;;
66593;SDS011;53450;42.584;23.366;2022-09-13T18:03:54;9.35;;;3.97;;
66593;SDS011;53450;42.584;23.366;2022-09-13T18:06:20;4.20;;;3.58;;
66593;SDS011;53450;42.584;23.366;2022-09-13T18:08:46;7.80;;;3.17;;
66593;SDS011;53450;42.584;23.366;2022-09-13T18:11:13;6.60;;;3.40;;
66593;SDS011;53450;42.584;23.366;2022-09-13T18:13:40;4.85;;;3.60;;
66593;SDS011;53450;42.584;23.366;2022-09-13T18:16:09;3.80;;;3.45;;
66593;SDS011;53450;42.584;23.366;2022-09-13T18:18:37;6.25;;;4.10;;
66593;SDS011;53450;42.584;23.366;2022-09-13T18:21:04;4.63;;;3.00;;
66593;SDS011;53450;42.584;23.366;2022-09-13T18:23:30;5.35;;;4.35;;
66593;SDS011;53450;42.584;23.366;2022-09-13T18:25:58;7.20;;;4.20;;
66593;SDS011;53450;42.584;23.366;2022-09-13T18:28:25;5.00;;;3.55;;
66593;SDS011;53450;42.584;23.366;2022-09-13T18:30:55;4.10;;;3.70;;
66593;SDS011;53450;42.584;23.366;2022-09-13T18:33:22;5.78;;;3.30;;
66593;SDS011;53450;42.584;23.366;2022-09-13T18:38:24;5.47;;;3.47;;